createdAt,value
2023-05-08T00:00:18.748Z,5.64
2023-05-08T00:02:46.699Z,5.62
2023-05-08T00:05:14.334Z,5.70
2023-05-08T00:07:42.086Z,5.58
2023-05-08T00:10:10.410Z,5.58
2023-05-08T00:12:38.111Z,5.57
2023-05-08T00:15:06.494Z,5.57
2023-05-08T00:17:34.262Z,5.53
2023-05-08T00:20:02.482Z,5.51
2023-05-08T00:22:30.111Z,5.56
2023-05-08T00:24:57.555Z,5.54
2023-05-08T00:27:25.116Z,5.44
2023-05-08T00:29:52.625Z,5.47
2023-05-08T00:32:20.358Z,5.56
2023-05-08T00:34:48.023Z,5.54
2023-05-08T00:37:15.610Z,5.61
2023-05-08T00:39:43.237Z,5.66
2023-05-08T00:42:10.919Z,5.50
2023-05-08T00:44:40.233Z,5.44
2023-05-08T00:47:09.165Z,5.28
2023-05-08T00:49:37.052Z,5.22
2023-05-08T00:52:08.872Z,5.15
2023-05-08T00:54:38.306Z,5.01
2023-05-08T00:57:08.833Z,4.97
2023-05-08T00:59:37.539Z,4.97
2023-05-08T01:02:06.115Z,5.00
2023-05-08T01:04:35.058Z,5.00
2023-05-08T01:07:03.185Z,5.06
2023-05-08T01:09:30.856Z,5.14
2023-05-08T01:12:10.165Z,5.06
2023-05-08T01:15:02.573Z,5.18
2023-05-08T01:18:01.242Z,5.29
2023-05-08T01:20:53.453Z,5.18
2023-05-08T01:23:30.761Z,5.23
2023-05-08T01:26:34.523Z,5.17
2023-05-08T01:29:40.355Z,5.08
2023-05-08T01:32:29.776Z,5.18
2023-05-08T01:35:16.549Z,5.19
2023-05-08T01:37:50.228Z,5.17
2023-05-08T01:40:27.539Z,5.18
2023-05-08T01:43:17.497Z,4.94
2023-05-08T01:45:50.272Z,4.85
2023-05-08T01:48:22.965Z,4.76
2023-05-08T01:50:58.469Z,4.77
2023-05-08T01:53:48.022Z,4.93
2023-05-08T01:56:22.330Z,5.00
2023-05-08T01:58:53.043Z,4.92
2023-05-08T02:01:24.703Z,4.94
2023-05-08T02:03:54.146Z,4.68
2023-05-08T02:06:25.184Z,4.61
2023-05-08T02:08:54.924Z,4.53
2023-05-08T02:11:24.918Z,4.44
2023-05-08T02:13:54.047Z,4.32
2023-05-08T02:16:22.872Z,4.36
2023-05-08T02:18:53.956Z,4.37
2023-05-08T02:21:23.758Z,4.32
2023-05-08T02:23:53.136Z,4.36
2023-05-08T02:26:22.488Z,4.35
2023-05-08T02:28:52.017Z,4.28
2023-05-08T02:31:21.124Z,4.29
2023-05-08T02:33:50.475Z,4.24
2023-05-08T02:36:20.920Z,4.33
2023-05-08T02:38:52.944Z,4.40
2023-05-08T02:41:23.355Z,4.43
2023-05-08T02:43:52.846Z,4.48
2023-05-08T02:46:42.574Z,4.53
2023-05-08T02:49:27.932Z,4.57
2023-05-08T02:52:14.555Z,4.54
2023-05-08T02:54:47.278Z,4.45
2023-05-08T02:57:23.634Z,4.46
2023-05-08T03:00:14.841Z,4.48
2023-05-08T03:02:52.770Z,4.43
2023-05-08T03:05:35.694Z,4.34
2023-05-08T03:08:06.632Z,4.35
2023-05-08T03:10:36.725Z,4.41
2023-05-08T03:13:07.360Z,4.43
2023-05-08T03:15:41.695Z,4.49
2023-05-08T03:18:16.883Z,4.45
2023-05-08T03:20:47.762Z,4.39
2023-05-08T03:23:18.472Z,4.33
2023-05-08T03:25:46.449Z,4.13
2023-05-08T03:28:16.364Z,3.99
2023-05-08T03:30:44.361Z,3.89
2023-05-08T03:33:16.607Z,4.01
2023-05-08T03:35:45.514Z,4.32
2023-05-08T03:38:13.531Z,4.77
2023-05-08T03:40:43.012Z,5.09
2023-05-08T03:43:12.066Z,5.67
2023-05-08T03:45:41.266Z,6.14
2023-05-08T03:48:10.253Z,6.62
2023-05-08T03:50:39.146Z,7.28
2023-05-08T03:53:10.038Z,7.83
2023-05-08T03:55:38.443Z,7.66
2023-05-08T03:58:22.036Z,8.12
2023-05-08T04:01:16.948Z,8.78
2023-05-08T04:04:16.606Z,9.18
2023-05-08T04:06:50.471Z,9.23
2023-05-08T04:09:31.656Z,9.76
2023-05-08T04:12:09.777Z,10.26
2023-05-08T04:15:01.958Z,10.45
2023-05-08T04:17:45.923Z,10.37
2023-05-08T04:20:19.915Z,10.73
2023-05-08T04:22:50.790Z,10.97
2023-05-08T04:25:20.128Z,11.28
2023-05-08T04:27:51.452Z,11.60
2023-05-08T04:30:20.418Z,11.76
2023-05-08T04:32:48.959Z,11.73
2023-05-08T04:35:17.860Z,11.99
2023-05-08T04:37:47.451Z,12.43
2023-05-08T04:40:15.817Z,12.66
2023-05-08T04:42:44.182Z,12.51
2023-05-08T04:45:12.644Z,12.55
2023-05-08T04:47:41.589Z,12.98
2023-05-08T04:50:09.820Z,12.58
2023-05-08T04:52:37.571Z,12.47
2023-05-08T04:55:05.559Z,12.21
2023-05-08T04:57:36.214Z,12.15
2023-05-08T05:00:05.245Z,12.27
2023-05-08T05:02:36.438Z,11.82
2023-05-08T05:05:04.414Z,11.59
2023-05-08T05:07:31.932Z,11.86
2023-05-08T05:10:01.001Z,11.83
2023-05-08T05:12:29.209Z,11.90
2023-05-08T05:14:56.663Z,11.78
2023-05-08T05:17:25.478Z,11.95
2023-05-08T05:19:53.509Z,11.91
2023-05-08T05:22:21.859Z,12.00
2023-05-08T05:24:49.416Z,12.29
2023-05-08T05:27:17.925Z,12.42
2023-05-08T05:29:46.809Z,12.68
2023-05-08T05:32:14.226Z,12.81
2023-05-08T05:34:42.116Z,13.42
2023-05-08T05:37:10.003Z,12.90
2023-05-08T05:39:38.655Z,12.90
2023-05-08T05:42:06.465Z,13.63
2023-05-08T05:44:34.016Z,13.15
2023-05-08T05:47:01.548Z,13.26
2023-05-08T05:49:29.178Z,13.97
2023-05-08T05:51:56.871Z,14.50
2023-05-08T05:54:24.363Z,14.61
2023-05-08T05:56:51.893Z,14.80
2023-05-08T05:59:19.392Z,15.15
2023-05-08T06:01:46.907Z,14.95
2023-05-08T06:04:14.645Z,14.83
2023-05-08T06:06:42.101Z,14.69
2023-05-08T06:09:09.569Z,14.09
2023-05-08T06:11:36.975Z,14.12
2023-05-08T06:14:04.645Z,13.91
2023-05-08T06:16:32.477Z,13.59
2023-05-08T06:19:00.520Z,13.62
2023-05-08T06:21:28.750Z,13.70
2023-05-08T06:23:56.321Z,13.69
2023-05-08T06:26:23.857Z,13.44
2023-05-08T06:28:51.341Z,13.62
2023-05-08T06:31:19.333Z,13.84
2023-05-08T06:33:46.887Z,13.57
2023-05-08T06:36:14.325Z,13.54
2023-05-08T06:38:41.848Z,13.30
2023-05-08T06:41:09.311Z,13.34
2023-05-08T06:43:36.852Z,13.17
2023-05-08T06:46:07.060Z,13.71
2023-05-08T06:48:34.681Z,13.31
2023-05-08T06:51:02.764Z,13.80
2023-05-08T06:53:30.806Z,13.88
2023-05-08T06:55:58.965Z,14.34
2023-05-08T06:58:26.465Z,14.50
2023-05-08T07:00:53.937Z,14.41
2023-05-08T07:03:21.708Z,14.17
2023-05-08T07:05:49.204Z,14.38
2023-05-08T07:08:16.699Z,14.63
2023-05-08T07:10:44.093Z,14.56
2023-05-08T07:13:11.598Z,15.16
2023-05-08T07:15:42.114Z,14.62
2023-05-08T07:18:09.748Z,15.02
2023-05-08T07:20:37.215Z,14.76
2023-05-08T07:23:04.794Z,14.73
2023-05-08T07:25:32.323Z,14.57
2023-05-08T07:28:01.280Z,14.97
2023-05-08T07:30:29.040Z,15.13
2023-05-08T07:32:56.775Z,15.35
2023-05-08T07:35:24.257Z,15.64
2023-05-08T07:37:51.871Z,15.24
2023-05-08T07:40:19.468Z,15.28
2023-05-08T07:42:46.964Z,15.32
2023-05-08T07:45:15.012Z,15.12
2023-05-08T07:47:50.765Z,15.42
2023-05-08T07:50:18.656Z,15.54
2023-05-08T07:52:47.967Z,15.63
2023-05-08T07:55:17.976Z,15.12
2023-05-08T07:57:45.569Z,14.72
2023-05-08T08:00:15.268Z,14.85
2023-05-08T08:02:44.984Z,14.36
2023-05-08T08:05:13.046Z,14.36
2023-05-08T08:07:40.796Z,14.00
2023-05-08T08:10:08.744Z,13.97
2023-05-08T08:12:36.511Z,14.26
2023-05-08T08:15:04.362Z,14.42
2023-05-08T08:17:32.061Z,14.48
2023-05-08T08:19:59.927Z,14.05
2023-05-08T08:22:27.374Z,14.03
2023-05-08T08:24:57.879Z,14.02
2023-05-08T08:27:25.369Z,14.35
2023-05-08T08:30:04.507Z,14.44
2023-05-08T08:32:40.540Z,13.87
2023-05-08T08:35:08.592Z,14.01
2023-05-08T08:37:36.127Z,14.04
2023-05-08T08:40:04.057Z,14.12
2023-05-08T08:42:31.843Z,14.15
2023-05-08T08:44:59.346Z,14.27
2023-05-08T08:47:29.998Z,14.43
2023-05-08T08:50:03.162Z,14.27
2023-05-08T08:52:47.396Z,14.36
2023-05-08T08:55:18.621Z,14.10
2023-05-08T08:58:18.435Z,14.36
2023-05-08T09:00:47.691Z,14.77
2023-05-08T09:03:15.692Z,14.24
2023-05-08T09:05:45.218Z,13.88
2023-05-08T09:08:13.154Z,13.96
2023-05-08T09:10:41.137Z,14.17
2023-05-08T09:13:08.749Z,14.30
2023-05-08T09:15:36.326Z,14.56
2023-05-08T09:18:04.151Z,14.74
2023-05-08T09:20:31.796Z,14.43
2023-05-08T09:23:02.774Z,14.59
2023-05-08T09:25:49.006Z,14.45
2023-05-08T09:28:24.755Z,14.52
2023-05-08T09:30:57.586Z,14.49
2023-05-08T09:33:27.295Z,14.66
2023-05-08T09:35:56.689Z,14.23
2023-05-08T09:38:30.379Z,14.01
2023-05-08T09:41:11.244Z,14.31
2023-05-08T09:43:39.516Z,14.52
2023-05-08T09:46:27.473Z,14.51
2023-05-08T09:48:56.969Z,14.54
2023-05-08T09:51:26.712Z,14.84
2023-05-08T09:53:56.855Z,14.94
2023-05-08T09:56:39.603Z,14.57
2023-05-08T09:59:28.903Z,14.68
2023-05-08T10:01:57.683Z,15.16
2023-05-08T10:04:36.020Z,15.04
2023-05-08T10:07:04.656Z,15.29
2023-05-08T10:09:46.854Z,14.74
2023-05-08T10:12:17.770Z,14.97
2023-05-08T10:14:47.872Z,15.17
2023-05-08T10:17:25.188Z,15.33
2023-05-08T10:19:58.453Z,15.60
2023-05-08T10:22:27.688Z,15.41
2023-05-08T10:24:58.661Z,15.66
2023-05-08T10:27:44.519Z,16.11
2023-05-08T10:30:14.883Z,16.29
2023-05-08T10:32:51.063Z,16.32
2023-05-08T10:35:19.318Z,16.56
2023-05-08T10:37:49.016Z,16.63
2023-05-08T10:40:21.011Z,16.55
2023-05-08T10:42:49.960Z,16.42
2023-05-08T10:45:17.932Z,16.42
2023-05-08T10:47:53.771Z,16.33
2023-05-08T10:51:05.760Z,16.73
2023-05-08T10:53:55.798Z,16.81
2023-05-08T10:56:27.744Z,16.57
2023-05-08T10:58:59.457Z,16.88
2023-05-08T11:01:27.383Z,17.14
2023-05-08T11:03:57.735Z,17.37
2023-05-08T11:06:46.648Z,17.85
2023-05-08T11:09:22.284Z,18.04
2023-05-08T11:12:21.202Z,17.34
2023-05-08T11:15:06.837Z,16.83
2023-05-08T11:17:34.548Z,16.83
2023-05-08T11:20:07.070Z,16.52
2023-05-08T11:22:35.724Z,16.40
2023-05-08T11:25:10.656Z,16.66
2023-05-08T11:27:42.630Z,16.52
2023-05-08T11:30:26.830Z,16.87
2023-05-08T11:32:58.912Z,17.06
2023-05-08T11:35:51.885Z,17.18
2023-05-08T11:38:35.031Z,16.98
2023-05-08T11:41:10.631Z,16.88
2023-05-08T11:44:02.791Z,16.82
2023-05-08T11:46:54.743Z,17.02
2023-05-08T11:49:28.212Z,17.01
2023-05-08T11:51:59.377Z,16.93
2023-05-08T11:54:30.197Z,17.34
2023-05-08T11:56:58.510Z,17.72
2023-05-08T11:59:26.052Z,17.76
2023-05-08T12:04:24.186Z,17.53
2023-05-08T12:06:57.691Z,17.29
2023-05-08T12:09:25.363Z,17.60
2023-05-08T12:11:58.093Z,17.46
2023-05-08T12:14:25.643Z,17.70
2023-05-08T12:16:53.224Z,17.67
2023-05-08T12:19:20.744Z,17.77
2023-05-08T12:21:49.203Z,17.93
2023-05-08T12:24:23.181Z,18.00
2023-05-08T12:26:54.609Z,17.94
2023-05-08T12:29:23.047Z,17.73
2023-05-08T12:31:51.282Z,17.57
2023-05-08T12:34:18.959Z,17.56
2023-05-08T12:36:46.490Z,17.75
2023-05-08T12:39:16.430Z,17.68
2023-05-08T12:41:51.308Z,17.68
2023-05-08T12:44:20.124Z,17.88
2023-05-08T12:46:57.772Z,18.04
2023-05-08T12:49:31.856Z,18.49
2023-05-08T12:52:02.841Z,18.64
2023-05-08T12:54:34.914Z,18.92
2023-05-08T12:57:11.126Z,19.24
2023-05-08T12:59:38.892Z,18.93
2023-05-08T13:02:26.696Z,18.66
2023-05-08T13:04:59.531Z,18.53
2023-05-08T13:07:32.845Z,18.18
2023-05-08T13:10:05.032Z,18.07
2023-05-08T13:12:32.706Z,18.11
2023-05-08T13:15:01.078Z,18.18
2023-05-08T13:17:28.717Z,18.23
2023-05-08T13:19:56.257Z,18.14
2023-05-08T13:22:26.826Z,18.00
2023-05-08T13:24:54.453Z,18.32
2023-05-08T13:27:22.414Z,18.32
2023-05-08T13:29:49.853Z,18.59
2023-05-08T13:32:17.488Z,19.15
2023-05-08T13:34:50.258Z,19.27
2023-05-08T13:37:19.910Z,18.86
2023-05-08T13:39:47.339Z,18.70
2023-05-08T13:42:14.823Z,18.44
2023-05-08T13:44:42.363Z,18.33
2023-05-08T13:47:10.384Z,18.18
2023-05-08T13:49:37.925Z,18.48
2023-05-08T13:52:05.522Z,18.65
2023-05-08T13:54:33.063Z,18.92
2023-05-08T13:57:01.311Z,19.31
2023-05-08T13:59:28.813Z,19.21
2023-05-08T14:01:56.449Z,19.38
2023-05-08T14:04:23.932Z,18.93
2023-05-08T14:06:51.472Z,19.40
2023-05-08T14:09:18.965Z,19.12
2023-05-08T14:11:46.567Z,18.80
2023-05-08T14:14:14.377Z,18.82
2023-05-08T14:16:42.052Z,18.89
2023-05-08T14:19:09.724Z,18.90
2023-05-08T14:21:37.507Z,18.71
2023-05-08T14:24:05.644Z,18.60
2023-05-08T14:26:33.168Z,18.75
2023-05-08T14:29:00.992Z,18.60
2023-05-08T14:31:28.518Z,18.60
2023-05-08T14:33:56.226Z,18.54
2023-05-08T14:36:23.696Z,18.17
2023-05-08T14:38:51.494Z,18.50
2023-05-08T14:41:19.004Z,18.81
2023-05-08T14:43:47.210Z,18.64
2023-05-08T14:46:15.013Z,18.74
2023-05-08T14:48:42.893Z,18.80
2023-05-08T14:51:12.291Z,18.84
2023-05-08T14:53:41.070Z,18.80
2023-05-08T14:56:08.900Z,18.89
2023-05-08T14:58:36.567Z,18.57
2023-05-08T15:01:04.139Z,18.61
2023-05-08T15:03:31.952Z,18.48
2023-05-08T15:06:00.115Z,18.29
2023-05-08T15:08:27.541Z,18.25
2023-05-08T15:10:54.989Z,18.23
2023-05-08T15:13:22.598Z,18.07
2023-05-08T15:15:50.140Z,18.18
2023-05-08T15:18:17.633Z,18.38
2023-05-08T15:20:45.086Z,18.40
2023-05-08T15:23:12.625Z,18.57
2023-05-08T15:25:40.032Z,18.27
2023-05-08T15:28:07.563Z,18.35
2023-05-08T15:30:35.042Z,18.26
2023-05-08T15:33:02.750Z,18.07
2023-05-08T15:35:30.290Z,17.81
2023-05-08T15:37:57.871Z,17.88
2023-05-08T15:40:25.372Z,17.77
2023-05-08T15:42:54.082Z,17.65
2023-05-08T15:45:21.624Z,17.34
2023-05-08T15:47:49.214Z,17.37
2023-05-08T15:50:16.744Z,17.49
2023-05-08T15:52:44.311Z,17.67
2023-05-08T15:55:12.053Z,17.85
2023-05-08T15:57:39.827Z,17.97
2023-05-08T16:00:07.995Z,17.84
2023-05-08T16:02:35.572Z,17.55
2023-05-08T16:05:03.303Z,17.36
2023-05-08T16:07:30.813Z,17.51
2023-05-08T16:09:58.302Z,17.69
2023-05-08T16:12:25.929Z,17.60
2023-05-08T16:14:53.641Z,17.57
2023-05-08T16:17:21.180Z,17.52
2023-05-08T16:19:48.764Z,17.53
2023-05-08T16:22:16.277Z,17.48
2023-05-08T16:24:43.764Z,17.44
2023-05-08T16:27:11.367Z,16.97
2023-05-08T16:29:39.065Z,16.30
2023-05-08T16:32:06.607Z,16.29
2023-05-08T16:34:35.456Z,16.40
2023-05-08T16:37:02.998Z,16.12
2023-05-08T16:39:30.657Z,16.03
2023-05-08T16:41:58.210Z,15.88
2023-05-08T16:44:25.715Z,15.55
2023-05-08T16:46:53.367Z,15.49
2023-05-08T16:49:21.024Z,15.50
2023-05-08T16:51:48.897Z,15.34
2023-05-08T16:54:16.476Z,15.26
2023-05-08T16:56:43.969Z,15.34
2023-05-08T16:59:11.539Z,15.38
2023-05-08T17:01:38.991Z,15.40
2023-05-08T17:04:06.524Z,14.91
2023-05-08T17:06:33.961Z,14.84
2023-05-08T17:09:01.486Z,14.91
2023-05-08T17:11:29.024Z,14.66
2023-05-08T17:13:56.596Z,14.81
2023-05-08T17:16:24.219Z,14.54
2023-05-08T17:18:51.707Z,14.39
2023-05-08T17:21:19.232Z,14.23
2023-05-08T17:23:46.754Z,14.32
2023-05-08T17:26:14.232Z,14.20
2023-05-08T17:28:41.754Z,14.19
2023-05-08T17:31:09.756Z,14.20
2023-05-08T17:33:37.935Z,14.21
2023-05-08T17:36:05.731Z,14.17
2023-05-08T17:38:35.343Z,14.05
2023-05-08T17:41:02.845Z,13.90
2023-05-08T17:43:31.070Z,13.95
2023-05-08T17:45:58.634Z,13.63
2023-05-08T17:48:26.193Z,13.66
2023-05-08T17:50:53.823Z,13.81
2023-05-08T17:53:21.331Z,13.56
2023-05-08T17:55:48.910Z,13.49
2023-05-08T17:58:16.464Z,13.46
2023-05-08T18:00:43.961Z,13.40
2023-05-08T18:03:12.327Z,13.28
2023-05-08T18:05:39.974Z,13.38
2023-05-08T18:08:07.505Z,13.19
2023-05-08T18:10:36.442Z,13.20
2023-05-08T18:13:04.039Z,12.97
2023-05-08T18:15:31.554Z,12.97
2023-05-08T18:17:59.068Z,13.17
2023-05-08T18:20:26.584Z,13.26
2023-05-08T18:22:54.117Z,13.09
2023-05-08T18:25:21.668Z,13.14
2023-05-08T18:27:50.315Z,13.22
2023-05-08T18:30:18.045Z,13.24
2023-05-08T18:32:45.685Z,13.01
2023-05-08T18:35:13.189Z,13.04
2023-05-08T18:37:40.705Z,13.00
2023-05-08T18:40:08.740Z,12.81
2023-05-08T18:42:36.366Z,12.83
2023-05-08T18:45:06.106Z,12.69
2023-05-08T18:47:33.614Z,12.67
2023-05-08T18:50:01.266Z,12.60
2023-05-08T18:52:28.789Z,12.56
2023-05-08T18:54:56.264Z,12.51
2023-05-08T18:57:23.782Z,12.43
2023-05-08T18:59:51.310Z,12.45
2023-05-08T19:02:18.794Z,12.35
2023-05-08T19:04:46.602Z,12.30
2023-05-08T19:07:14.085Z,12.27
2023-05-08T19:09:41.674Z,12.24
2023-05-08T19:12:09.293Z,12.25
2023-05-08T19:14:36.865Z,12.22
2023-05-08T19:17:04.415Z,12.15
2023-05-08T19:19:31.894Z,12.13
2023-05-08T19:21:59.416Z,12.10
2023-05-08T19:24:29.981Z,12.06
2023-05-08T19:26:57.839Z,12.00
2023-05-08T19:29:25.819Z,11.88
2023-05-08T19:31:53.489Z,11.87
2023-05-08T19:34:21.012Z,11.79
2023-05-08T19:36:48.493Z,11.69
2023-05-08T19:39:16.111Z,11.51
2023-05-08T19:41:43.972Z,11.32
2023-05-08T19:44:11.533Z,11.20
2023-05-08T19:46:39.920Z,10.96
2023-05-08T19:49:07.634Z,10.95
2023-05-08T19:51:35.073Z,10.93
2023-05-08T19:54:02.528Z,10.89
2023-05-08T19:56:30.057Z,10.89
2023-05-08T19:58:57.536Z,10.94
2023-05-08T20:01:25.074Z,10.78
2023-05-08T20:03:52.665Z,10.54
2023-05-08T20:06:20.198Z,10.41
2023-05-08T20:08:47.700Z,10.39
2023-05-08T20:11:15.410Z,10.31
2023-05-08T20:13:43.058Z,10.11
2023-05-08T20:16:10.748Z,10.02
2023-05-08T20:18:38.278Z,10.01
2023-05-08T20:21:05.757Z,9.97
2023-05-08T20:23:33.256Z,9.97
2023-05-08T20:26:00.802Z,9.83
2023-05-08T20:28:28.450Z,9.74
2023-05-08T20:30:56.032Z,9.77
2023-05-08T20:33:23.575Z,9.80
2023-05-08T20:35:52.087Z,9.85
2023-05-08T20:38:20.006Z,9.87
2023-05-08T20:40:47.769Z,9.86
2023-05-08T20:43:16.965Z,9.84
2023-05-08T20:45:44.522Z,9.77
2023-05-08T20:48:12.056Z,9.78
2023-05-08T20:50:39.567Z,9.82
2023-05-08T20:53:07.016Z,9.81
2023-05-08T20:55:34.488Z,9.76
2023-05-08T20:58:03.704Z,9.85
2023-05-08T21:00:31.279Z,9.89
2023-05-08T21:02:58.859Z,9.86
2023-05-08T21:05:26.441Z,9.85
2023-05-08T21:08:02.522Z,9.81
2023-05-08T21:10:31.537Z,9.85
2023-05-08T21:12:59.205Z,9.85
2023-05-08T21:15:26.643Z,9.79
2023-05-08T21:17:54.841Z,9.70
2023-05-08T21:20:22.261Z,9.72
2023-05-08T21:22:49.762Z,9.62
2023-05-08T21:25:17.996Z,9.56
2023-05-08T21:27:45.445Z,9.46
2023-05-08T21:30:15.590Z,9.36
2023-05-08T21:32:44.715Z,9.31
2023-05-08T21:35:13.134Z,9.23
2023-05-08T21:37:40.942Z,9.20
2023-05-08T21:40:09.639Z,9.16
2023-05-08T21:42:37.169Z,9.30
2023-05-08T21:45:05.070Z,9.33
2023-05-08T21:47:32.688Z,9.22
2023-05-08T21:50:00.241Z,9.25
2023-05-08T21:52:27.779Z,9.25
2023-05-08T21:54:55.276Z,9.19
2023-05-08T21:57:22.812Z,9.13
2023-05-08T21:59:50.737Z,9.23
2023-05-08T22:02:19.279Z,9.16
2023-05-08T22:04:46.739Z,9.13
2023-05-08T22:07:14.150Z,9.09
2023-05-08T22:09:41.658Z,9.03
2023-05-08T22:12:09.436Z,8.97
2023-05-08T22:14:36.961Z,8.86
2023-05-08T22:17:04.519Z,8.60
2023-05-08T22:19:32.150Z,8.63
2023-05-08T22:21:59.660Z,8.60
2023-05-08T22:24:27.170Z,8.47
2023-05-08T22:26:54.653Z,8.36
2023-05-08T22:29:22.117Z,8.34
2023-05-08T22:31:49.722Z,8.48
2023-05-08T22:34:17.334Z,8.46
2023-05-08T22:36:44.818Z,8.53
2023-05-08T22:39:12.305Z,8.50
2023-05-08T22:41:40.084Z,8.34
2023-05-08T22:44:07.696Z,8.40
2023-05-08T22:46:36.015Z,8.20
2023-05-08T22:49:03.730Z,8.15
2023-05-08T22:51:32.750Z,8.13
2023-05-08T22:54:00.172Z,8.18
2023-05-08T22:56:27.884Z,8.18
2023-05-08T22:58:55.274Z,8.16
2023-05-08T23:01:23.046Z,8.08
2023-05-08T23:03:52.430Z,8.08
2023-05-08T23:06:19.932Z,8.04
2023-05-08T23:08:47.412Z,8.00
2023-05-08T23:11:14.941Z,8.04
2023-05-08T23:13:42.427Z,7.99
2023-05-08T23:16:09.951Z,7.97
2023-05-08T23:18:37.427Z,8.02
2023-05-08T23:21:08.633Z,7.96
2023-05-08T23:23:36.731Z,7.90
2023-05-08T23:26:05.155Z,7.89
2023-05-08T23:28:36.446Z,7.76
2023-05-08T23:31:04.364Z,7.71
2023-05-08T23:33:31.865Z,7.75
2023-05-08T23:35:59.649Z,7.73
2023-05-08T23:38:27.155Z,7.65
2023-05-08T23:40:54.754Z,7.67
2023-05-08T23:43:22.213Z,7.71
2023-05-08T23:45:49.751Z,7.75
2023-05-08T23:48:17.365Z,7.77
2023-05-08T23:50:44.848Z,7.83
2023-05-08T23:53:13.109Z,7.80
2023-05-08T23:55:40.691Z,7.71
2023-05-08T23:58:08.177Z,7.76
